Tsiigehtchic, Canada
Current Conditions -  °F | °C
As of 7:00 PM on Tuesday 25 Nov 2014 (Local Time) from CYEV Reporting Station
Overcast Overcast  
Wind Chill: -18°   Ceiling: 2000
Heat Index: -2°   Visibility: 10mi
Dew Point: -8°   Wind: 9mph
Humidity: 78%   Direction: 300°WNW
Pressure: 30.33"   Gusts: NA
Location:  67.43°N, 133.75°W
Report Text: CYEV 260200Z 30008KT 10SM OVC020 M19/M22 A3033 RMK SC8 SLP282
Loading
Personal Weather Stations






























Interactive Weather Map New forecast layout! Learn more

10-Day Weather Forecast

Advertisements
Track Severe Weather on mobile